Wheatland, California
Current Conditions -  °F | °C
As of 5:15 PM on Friday 24 Oct 2014 (Local Time) from KLHM Reporting Station
Clear Clear  
Wind Chill: 77°   Ceiling: Unl
Heat Index: 78°   Visibility: 10mi
Dew Point: 45°   Wind: 3mph
Humidity: 32%   Direction: 220°SW
Pressure: 29.84"   Gusts: NA
Location:  39.01°N, 121.42°W
Report Text: KLHM 250015Z AUTO 22003KT 10SM CLR 25/07 A2984 RMK AO1
Loading
Personal Weather Stations






























Interactive Weather Map
Tropical Storm Tracking
New forecast layout! Learn more

10-Day Weather Forecast

Advertisements
Track Severe Weather on mobile